sensor_id;sensor_type;location;lat;lon;timestamp;temperature;humidity
52509;DHT22;38420;53.150;6.370;2023-05-16T00:01:16;8.90;99.90
52509;DHT22;38420;53.150;6.370;2023-05-16T00:03:41;8.10;99.90
52509;DHT22;38420;53.150;6.370;2023-05-16T00:06:08;8.50;99.90
52509;DHT22;38420;53.150;6.370;2023-05-16T00:08:34;8.10;99.90
52509;DHT22;38420;53.150;6.370;2023-05-16T00:10:59;8.50;99.90
52509;DHT22;38420;53.150;6.370;2023-05-16T00:13:26;8.40;99.90
52509;DHT22;38420;53.150;6.370;2023-05-16T00:15:52;8.50;99.90
52509;DHT22;38420;53.150;6.370;2023-05-16T00:18:19;8.30;99.90
52509;DHT22;38420;53.150;6.370;2023-05-16T00:20:47;8.50;99.90
52509;DHT22;38420;53.150;6.370;2023-05-16T00:23:13;8.60;99.90
52509;DHT22;38420;53.150;6.370;2023-05-16T00:25:39;8.60;99.90
52509;DHT22;38420;53.150;6.370;2023-05-16T00:28:05;8.70;99.90
52509;DHT22;38420;53.150;6.370;2023-05-16T00:30:31;8.60;99.90
52509;DHT22;38420;53.150;6.370;2023-05-16T00:32:57;8.60;99.90
52509;DHT22;38420;53.150;6.370;2023-05-16T00:35:22;7.90;99.90
52509;DHT22;38420;53.150;6.370;2023-05-16T00:37:49;8.00;99.90
52509;DHT22;38420;53.150;6.370;2023-05-16T00:40:15;8.60;99.90
52509;DHT22;38420;53.150;6.370;2023-05-16T00:42:41;8.20;99.90
52509;DHT22;38420;53.150;6.370;2023-05-16T00:45:08;8.50;99.90
52509;DHT22;38420;53.150;6.370;2023-05-16T00:47:34;8.50;99.90
52509;DHT22;38420;53.150;6.370;2023-05-16T00:50:00;8.50;99.90
52509;DHT22;38420;53.150;6.370;2023-05-16T00:52:26;8.00;99.90
52509;DHT22;38420;53.150;6.370;2023-05-16T00:54:52;8.10;99.90
52509;DHT22;38420;53.150;6.370;2023-05-16T00:57:17;8.50;99.90
52509;DHT22;38420;53.150;6.370;2023-05-16T00:59:45;8.10;99.90
52509;DHT22;38420;53.150;6.370;2023-05-16T01:02:12;8.00;99.90
52509;DHT22;38420;53.150;6.370;2023-05-16T01:04:38;8.40;99.90
52509;DHT22;38420;53.150;6.370;2023-05-16T01:07:03;8.50;99.90
52509;DHT22;38420;53.150;6.370;2023-05-16T01:09:29;7.70;99.90
52509;DHT22;38420;53.150;6.370;2023-05-16T01:22:19;8.00;99.90
52509;DHT22;38420;53.150;6.370;2023-05-16T01:25:10;7.80;99.90
52509;DHT22;38420;53.150;6.370;2023-05-16T01:27:37;8.10;99.90
52509;DHT22;38420;53.150;6.370;2023-05-16T01:30:13;8.00;99.90
52509;DHT22;38420;53.150;6.370;2023-05-16T01:32:40;8.50;99.90
52509;DHT22;38420;53.150;6.370;2023-05-16T01:35:06;8.40;99.90
52509;DHT22;38420;53.150;6.370;2023-05-16T01:40:43;8.50;99.90
52509;DHT22;38420;53.150;6.370;2023-05-16T01:43:13;8.00;99.90
52509;DHT22;38420;53.150;6.370;2023-05-16T01:45:46;7.80;99.90
52509;DHT22;38420;53.150;6.370;2023-05-16T01:48:17;8.60;99.90
52509;DHT22;38420;53.150;6.370;2023-05-16T01:50:47;7.90;99.90
52509;DHT22;38420;53.150;6.370;2023-05-16T01:53:18;7.80;99.90
52509;DHT22;38420;53.150;6.370;2023-05-16T01:55:50;8.00;99.90
52509;DHT22;38420;53.150;6.370;2023-05-16T01:58:20;8.60;99.90
52509;DHT22;38420;53.150;6.370;2023-05-16T02:00:47;8.60;99.90
52509;DHT22;38420;53.150;6.370;2023-05-16T02:03:13;8.10;99.90
52509;DHT22;38420;53.150;6.370;2023-05-16T02:05:38;7.90;99.90
52509;DHT22;38420;53.150;6.370;2023-05-16T02:08:04;8.40;99.90
52509;DHT22;38420;53.150;6.370;2023-05-16T02:10:30;7.90;99.90
52509;DHT22;38420;53.150;6.370;2023-05-16T02:12:55;8.40;99.90
52509;DHT22;38420;53.150;6.370;2023-05-16T02:15:21;8.40;99.90
52509;DHT22;38420;53.150;6.370;2023-05-16T02:17:47;8.50;99.90
52509;DHT22;38420;53.150;6.370;2023-05-16T02:20:12;7.70;99.90
52509;DHT22;38420;53.150;6.370;2023-05-16T02:22:38;8.10;99.90
52509;DHT22;38420;53.150;6.370;2023-05-16T02:25:05;7.70;99.90
52509;DHT22;38420;53.150;6.370;2023-05-16T02:27:31;7.60;99.90
52509;DHT22;38420;53.150;6.370;2023-05-16T02:29:57;8.30;99.90
52509;DHT22;38420;53.150;6.370;2023-05-16T02:32:22;8.20;99.90
52509;DHT22;38420;53.150;6.370;2023-05-16T02:34:48;7.70;99.90
52509;DHT22;38420;53.150;6.370;2023-05-16T02:37:14;7.40;99.90
52509;DHT22;38420;53.150;6.370;2023-05-16T02:39:39;8.10;99.90
52509;DHT22;38420;53.150;6.370;2023-05-16T02:42:06;8.10;99.90
52509;DHT22;38420;53.150;6.370;2023-05-16T02:44:32;7.90;99.90
52509;DHT22;38420;53.150;6.370;2023-05-16T02:46:57;7.20;99.90
52509;DHT22;38420;53.150;6.370;2023-05-16T02:49:23;7.20;99.90
52509;DHT22;38420;53.150;6.370;2023-05-16T02:51:49;7.90;99.90
52509;DHT22;38420;53.150;6.370;2023-05-16T02:54:14;7.60;99.90
52509;DHT22;38420;53.150;6.370;2023-05-16T02:56:40;7.10;99.90
52509;DHT22;38420;53.150;6.370;2023-05-16T02:59:06;7.20;99.90
52509;DHT22;38420;53.150;6.370;2023-05-16T03:01:32;7.00;99.90
52509;DHT22;38420;53.150;6.370;2023-05-16T03:03:57;7.80;99.90
52509;DHT22;38420;53.150;6.370;2023-05-16T03:06:24;7.60;99.90
52509;DHT22;38420;53.150;6.370;2023-05-16T03:08:49;7.00;99.90
52509;DHT22;38420;53.150;6.370;2023-05-16T03:11:16;6.90;99.90
52509;DHT22;38420;53.150;6.370;2023-05-16T03:13:45;7.60;99.90
52509;DHT22;38420;53.150;6.370;2023-05-16T03:16:11;7.00;99.90
52509;DHT22;38420;53.150;6.370;2023-05-16T03:18:36;7.50;99.90
52509;DHT22;38420;53.150;6.370;2023-05-16T03:21:02;6.80;99.90
52509;DHT22;38420;53.150;6.370;2023-05-16T03:23:27;6.80;99.90
52509;DHT22;38420;53.150;6.370;2023-05-16T03:25:53;7.60;99.90
52509;DHT22;38420;53.150;6.370;2023-05-16T03:28:19;7.60;99.90
52509;DHT22;38420;53.150;6.370;2023-05-16T03:30:44;7.50;99.90
52509;DHT22;38420;53.150;6.370;2023-05-16T03:33:10;7.20;99.90
52509;DHT22;38420;53.150;6.370;2023-05-16T03:35:36;6.90;99.90
52509;DHT22;38420;53.150;6.370;2023-05-16T03:38:02;7.00;99.90
52509;DHT22;38420;53.150;6.370;2023-05-16T03:40:28;7.70;99.90
52509;DHT22;38420;53.150;6.370;2023-05-16T03:42:53;6.80;99.90
52509;DHT22;38420;53.150;6.370;2023-05-16T03:45:19;7.40;99.90
52509;DHT22;38420;53.150;6.370;2023-05-16T03:47:45;6.90;99.90
52509;DHT22;38420;53.150;6.370;2023-05-16T03:50:10;7.00;99.90
52509;DHT22;38420;53.150;6.370;2023-05-16T03:52:36;7.70;99.90
52509;DHT22;38420;53.150;6.370;2023-05-16T03:55:02;6.90;99.90
52509;DHT22;38420;53.150;6.370;2023-05-16T03:57:32;7.00;99.90
52509;DHT22;38420;53.150;6.370;2023-05-16T03:59:58;7.50;99.90
52509;DHT22;38420;53.150;6.370;2023-05-16T04:02:23;6.90;99.90
52509;DHT22;38420;53.150;6.370;2023-05-16T04:04:49;7.30;99.90
52509;DHT22;38420;53.150;6.370;2023-05-16T04:07:15;7.00;99.90
52509;DHT22;38420;53.150;6.370;2023-05-16T04:09:41;7.10;99.90
52509;DHT22;38420;53.150;6.370;2023-05-16T04:12:06;7.70;99.90
52509;DHT22;38420;53.150;6.370;2023-05-16T04:14:33;7.70;99.90
52509;DHT22;38420;53.150;6.370;2023-05-16T04:16:59;7.70;99.90
52509;DHT22;38420;53.150;6.370;2023-05-16T04:19:24;7.50;99.90
52509;DHT22;38420;53.150;6.370;2023-05-16T04:21:50;7.00;99.90
52509;DHT22;38420;53.150;6.370;2023-05-16T04:24:16;7.50;99.90
52509;DHT22;38420;53.150;6.370;2023-05-16T04:26:42;6.90;99.90
52509;DHT22;38420;53.150;6.370;2023-05-16T04:29:08;7.50;99.90
52509;DHT22;38420;53.150;6.370;2023-05-16T04:31:33;7.10;99.90
52509;DHT22;38420;53.150;6.370;2023-05-16T04:33:59;7.50;99.90
52509;DHT22;38420;53.150;6.370;2023-05-16T04:36:25;6.90;99.90
52509;DHT22;38420;53.150;6.370;2023-05-16T04:38:54;7.70;99.90
52509;DHT22;38420;53.150;6.370;2023-05-16T04:41:20;6.90;99.90
52509;DHT22;38420;53.150;6.370;2023-05-16T04:43:47;7.10;99.90
52509;DHT22;38420;53.150;6.370;2023-05-16T04:46:13;7.00;99.90
52509;DHT22;38420;53.150;6.370;2023-05-16T04:48:40;7.60;99.90
52509;DHT22;38420;53.150;6.370;2023-05-16T04:51:05;7.20;99.90
52509;DHT22;38420;53.150;6.370;2023-05-16T04:53:31;7.80;99.90
52509;DHT22;38420;53.150;6.370;2023-05-16T04:55:57;6.90;99.90
52509;DHT22;38420;53.150;6.370;2023-05-16T04:58:23;7.30;99.90
52509;DHT22;38420;53.150;6.370;2023-05-16T05:00:50;7.60;99.90
52509;DHT22;38420;53.150;6.370;2023-05-16T05:03:16;6.90;99.90
52509;DHT22;38420;53.150;6.370;2023-05-16T05:05:42;7.80;99.90
52509;DHT22;38420;53.150;6.370;2023-05-16T05:08:08;7.70;99.90
52509;DHT22;38420;53.150;6.370;2023-05-16T05:10:34;7.50;99.90
52509;DHT22;38420;53.150;6.370;2023-05-16T05:13:00;7.00;99.90
52509;DHT22;38420;53.150;6.370;2023-05-16T05:15:25;7.40;99.90
52509;DHT22;38420;53.150;6.370;2023-05-16T05:17:51;7.60;99.90
52509;DHT22;38420;53.150;6.370;2023-05-16T05:20:17;7.70;99.90
52509;DHT22;38420;53.150;6.370;2023-05-16T05:22:42;7.80;99.90
52509;DHT22;38420;53.150;6.370;2023-05-16T05:25:08;8.10;99.90
52509;DHT22;38420;53.150;6.370;2023-05-16T05:27:34;7.80;99.90
52509;DHT22;38420;53.150;6.370;2023-05-16T05:30:00;7.60;99.90
52509;DHT22;38420;53.150;6.370;2023-05-16T05:32:26;8.30;99.90
52509;DHT22;38420;53.150;6.370;2023-05-16T05:34:51;8.40;99.90
52509;DHT22;38420;53.150;6.370;2023-05-16T05:37:17;8.30;99.90
52509;DHT22;38420;53.150;6.370;2023-05-16T05:39:43;7.90;99.90
52509;DHT22;38420;53.150;6.370;2023-05-16T05:42:09;8.70;99.90
52509;DHT22;38420;53.150;6.370;2023-05-16T05:44:36;8.70;99.90
52509;DHT22;38420;53.150;6.370;2023-05-16T05:47:03;8.50;99.90
52509;DHT22;38420;53.150;6.370;2023-05-16T05:49:29;8.40;99.90
52509;DHT22;38420;53.150;6.370;2023-05-16T05:51:55;9.00;99.90
52509;DHT22;38420;53.150;6.370;2023-05-16T05:54:21;9.10;99.90
52509;DHT22;38420;53.150;6.370;2023-05-16T05:56:47;8.60;99.90
52509;DHT22;38420;53.150;6.370;2023-05-16T05:59:13;9.00;99.90
52509;DHT22;38420;53.150;6.370;2023-05-16T06:01:39;9.30;99.90
52509;DHT22;38420;53.150;6.370;2023-05-16T06:04:05;9.20;99.90
52509;DHT22;38420;53.150;6.370;2023-05-16T06:06:31;9.30;99.90
52509;DHT22;38420;53.150;6.370;2023-05-16T06:08:57;9.50;99.90
52509;DHT22;38420;53.150;6.370;2023-05-16T06:11:23;9.70;99.90
52509;DHT22;38420;53.150;6.370;2023-05-16T06:13:50;9.50;99.90
52509;DHT22;38420;53.150;6.370;2023-05-16T06:16:16;9.50;99.90
52509;DHT22;38420;53.150;6.370;2023-05-16T06:18:42;9.70;99.90
52509;DHT22;38420;53.150;6.370;2023-05-16T06:21:07;9.80;99.90
52509;DHT22;38420;53.150;6.370;2023-05-16T06:23:33;9.90;99.90
52509;DHT22;38420;53.150;6.370;2023-05-16T06:26:00;9.70;99.90
52509;DHT22;38420;53.150;6.370;2023-05-16T06:28:26;9.80;99.90
52509;DHT22;38420;53.150;6.370;2023-05-16T06:30:51;9.80;99.90
52509;DHT22;38420;53.150;6.370;2023-05-16T06:33:17;9.80;99.90
52509;DHT22;38420;53.150;6.370;2023-05-16T06:35:43;10.00;99.90
52509;DHT22;38420;53.150;6.370;2023-05-16T06:38:09;9.90;99.90
52509;DHT22;38420;53.150;6.370;2023-05-16T06:40:34;10.00;99.90
52509;DHT22;38420;53.150;6.370;2023-05-16T06:43:00;10.00;99.90
52509;DHT22;38420;53.150;6.370;2023-05-16T06:45:26;10.10;99.90
52509;DHT22;38420;53.150;6.370;2023-05-16T06:47:51;10.10;99.90
52509;DHT22;38420;53.150;6.370;2023-05-16T06:50:17;10.20;99.90
52509;DHT22;38420;53.150;6.370;2023-05-16T06:52:43;10.40;99.90
52509;DHT22;38420;53.150;6.370;2023-05-16T06:55:08;10.30;99.90
52509;DHT22;38420;53.150;6.370;2023-05-16T06:57:34;10.30;99.90
52509;DHT22;38420;53.150;6.370;2023-05-16T07:00:00;10.40;99.90
52509;DHT22;38420;53.150;6.370;2023-05-16T07:02:25;10.30;99.90
52509;DHT22;38420;53.150;6.370;2023-05-16T07:04:51;10.30;99.90
52509;DHT22;38420;53.150;6.370;2023-05-16T07:07:16;10.40;99.90
52509;DHT22;38420;53.150;6.370;2023-05-16T07:09:42;10.40;99.90
52509;DHT22;38420;53.150;6.370;2023-05-16T07:12:08;10.40;99.90
52509;DHT22;38420;53.150;6.370;2023-05-16T07:14:34;10.50;99.90
52509;DHT22;38420;53.150;6.370;2023-05-16T07:17:00;10.60;99.90
52509;DHT22;38420;53.150;6.370;2023-05-16T07:19:25;10.70;99.90
52509;DHT22;38420;53.150;6.370;2023-05-16T07:21:51;10.80;99.90
52509;DHT22;38420;53.150;6.370;2023-05-16T07:24:17;10.90;99.90
52509;DHT22;38420;53.150;6.370;2023-05-16T07:26:42;10.90;99.90
52509;DHT22;38420;53.150;6.370;2023-05-16T07:29:08;10.80;99.90
52509;DHT22;38420;53.150;6.370;2023-05-16T07:31:33;10.70;99.90
52509;DHT22;38420;53.150;6.370;2023-05-16T07:33:59;10.70;99.90
52509;DHT22;38420;53.150;6.370;2023-05-16T07:36:25;10.90;99.90
52509;DHT22;38420;53.150;6.370;2023-05-16T07:38:51;11.10;99.90
52509;DHT22;38420;53.150;6.370;2023-05-16T07:41:16;11.30;99.90
52509;DHT22;38420;53.150;6.370;2023-05-16T07:43:42;11.40;99.90
52509;DHT22;38420;53.150;6.370;2023-05-16T07:46:07;11.30;99.90
52509;DHT22;38420;53.150;6.370;2023-05-16T07:48:33;11.20;99.90
52509;DHT22;38420;53.150;6.370;2023-05-16T07:50:58;11.20;99.90
52509;DHT22;38420;53.150;6.370;2023-05-16T07:53:24;11.50;99.90
52509;DHT22;38420;53.150;6.370;2023-05-16T07:55:50;11.60;99.90
52509;DHT22;38420;53.150;6.370;2023-05-16T07:58:16;12.20;99.90
52509;DHT22;38420;53.150;6.370;2023-05-16T08:00:41;12.20;99.90
52509;DHT22;38420;53.150;6.370;2023-05-16T08:03:07;12.00;99.90
52509;DHT22;38420;53.150;6.370;2023-05-16T08:05:33;11.80;99.90
52509;DHT22;38420;53.150;6.370;2023-05-16T08:07:58;11.70;99.90
52509;DHT22;38420;53.150;6.370;2023-05-16T08:10:24;12.00;99.90
52509;DHT22;38420;53.150;6.370;2023-05-16T08:12:50;12.50;99.90
52509;DHT22;38420;53.150;6.370;2023-05-16T08:15:16;13.20;99.90
52509;DHT22;38420;53.150;6.370;2023-05-16T08:17:42;13.70;99.90
52509;DHT22;38420;53.150;6.370;2023-05-16T08:20:07;14.00;99.90
52509;DHT22;38420;53.150;6.370;2023-05-16T08:22:33;14.60;99.90
52509;DHT22;38420;53.150;6.370;2023-05-16T08:24:59;14.70;99.90
52509;DHT22;38420;53.150;6.370;2023-05-16T08:27:26;14.90;99.90
52509;DHT22;38420;53.150;6.370;2023-05-16T08:29:51;15.00;99.90
52509;DHT22;38420;53.150;6.370;2023-05-16T08:32:17;15.00;99.90
52509;DHT22;38420;53.150;6.370;2023-05-16T08:34:43;15.00;99.90
52509;DHT22;38420;53.150;6.370;2023-05-16T08:37:08;15.10;99.90
52509;DHT22;38420;53.150;6.370;2023-05-16T08:39:35;15.80;99.90
52509;DHT22;38420;53.150;6.370;2023-05-16T08:42:03;15.60;99.90
52509;DHT22;38420;53.150;6.370;2023-05-16T08:44:29;15.20;99.90
52509;DHT22;38420;53.150;6.370;2023-05-16T08:46:56;14.70;99.90
52509;DHT22;38420;53.150;6.370;2023-05-16T08:49:25;14.70;99.90
52509;DHT22;38420;53.150;6.370;2023-05-16T08:51:56;14.40;99.90
52509;DHT22;38420;53.150;6.370;2023-05-16T08:54:22;14.40;99.90
52509;DHT22;38420;53.150;6.370;2023-05-16T08:56:48;14.10;99.90
52509;DHT22;38420;53.150;6.370;2023-05-16T08:59:15;13.80;99.90
52509;DHT22;38420;53.150;6.370;2023-05-16T09:01:41;13.40;99.90
52509;DHT22;38420;53.150;6.370;2023-05-16T09:04:08;13.10;99.90
52509;DHT22;38420;53.150;6.370;2023-05-16T09:06:35;12.70;99.90
52509;DHT22;38420;53.150;6.370;2023-05-16T09:09:00;12.80;99.90
52509;DHT22;38420;53.150;6.370;2023-05-16T09:11:27;13.10;99.90
52509;DHT22;38420;53.150;6.370;2023-05-16T09:13:53;13.10;99.90
52509;DHT22;38420;53.150;6.370;2023-05-16T09:16:19;13.10;99.90
52509;DHT22;38420;53.150;6.370;2023-05-16T09:18:57;12.90;99.90
52509;DHT22;38420;53.150;6.370;2023-05-16T09:21:27;13.20;99.90
52509;DHT22;38420;53.150;6.370;2023-05-16T09:23:53;13.30;99.90
52509;DHT22;38420;53.150;6.370;2023-05-16T09:26:20;13.30;99.90
52509;DHT22;38420;53.150;6.370;2023-05-16T09:28:47;13.00;99.90
52509;DHT22;38420;53.150;6.370;2023-05-16T09:31:26;12.90;99.90
52509;DHT22;38420;53.150;6.370;2023-05-16T09:33:54;12.70;99.90
52509;DHT22;38420;53.150;6.370;2023-05-16T09:36:20;12.60;99.90
52509;DHT22;38420;53.150;6.370;2023-05-16T09:38:46;12.50;99.90
52509;DHT22;38420;53.150;6.370;2023-05-16T09:41:12;12.60;99.90
52509;DHT22;38420;53.150;6.370;2023-05-16T09:43:39;12.80;99.90
52509;DHT22;38420;53.150;6.370;2023-05-16T09:46:06;12.90;99.90
52509;DHT22;38420;53.150;6.370;2023-05-16T09:48:32;13.10;99.90
52509;DHT22;38420;53.150;6.370;2023-05-16T09:50:57;13.20;99.90
52509;DHT22;38420;53.150;6.370;2023-05-16T09:53:32;13.30;99.90
52509;DHT22;38420;53.150;6.370;2023-05-16T09:56:20;13.30;99.90
52509;DHT22;38420;53.150;6.370;2023-05-16T09:58:45;13.30;99.90
52509;DHT22;38420;53.150;6.370;2023-05-16T10:01:12;13.30;99.90
52509;DHT22;38420;53.150;6.370;2023-05-16T10:03:39;13.30;99.90
52509;DHT22;38420;53.150;6.370;2023-05-16T10:06:06;13.20;99.90
52509;DHT22;38420;53.150;6.370;2023-05-16T10:08:33;13.20;99.90
52509;DHT22;38420;53.150;6.370;2023-05-16T10:11:05;13.00;99.90
52509;DHT22;38420;53.150;6.370;2023-05-16T10:13:33;13.00;99.90
52509;DHT22;38420;53.150;6.370;2023-05-16T10:16:02;12.70;99.90
52509;DHT22;38420;53.150;6.370;2023-05-16T10:18:31;12.70;99.90
52509;DHT22;38420;53.150;6.370;2023-05-16T10:21:03;12.60;99.90
52509;DHT22;38420;53.150;6.370;2023-05-16T10:23:30;12.80;99.90
52509;DHT22;38420;53.150;6.370;2023-05-16T10:25:57;13.00;99.90
52509;DHT22;38420;53.150;6.370;2023-05-16T10:28:23;13.00;99.90
52509;DHT22;38420;53.150;6.370;2023-05-16T10:30:50;13.10;99.90
52509;DHT22;38420;53.150;6.370;2023-05-16T10:33:17;13.10;99.90
52509;DHT22;38420;53.150;6.370;2023-05-16T10:35:43;13.30;99.90
52509;DHT22;38420;53.150;6.370;2023-05-16T10:38:10;13.20;99.90
52509;DHT22;38420;53.150;6.370;2023-05-16T10:40:38;13.20;99.90
52509;DHT22;38420;53.150;6.370;2023-05-16T10:43:04;13.20;99.90
52509;DHT22;38420;53.150;6.370;2023-05-16T10:45:30;13.20;99.90
52509;DHT22;38420;53.150;6.370;2023-05-16T10:48:02;13.10;99.90
52509;DHT22;38420;53.150;6.370;2023-05-16T10:50:40;13.20;99.90
52509;DHT22;38420;53.150;6.370;2023-05-16T10:53:31;13.00;99.90
52509;DHT22;38420;53.150;6.370;2023-05-16T10:58:46;13.00;99.90
52509;DHT22;38420;53.150;6.370;2023-05-16T11:01:18;13.10;99.90
52509;DHT22;38420;53.150;6.370;2023-05-16T11:06:44;13.10;99.90
52509;DHT22;38420;53.150;6.370;2023-05-16T11:17:19;13.50;99.90
52509;DHT22;38420;53.150;6.370;2023-05-16T11:19:50;13.60;99.90
52509;DHT22;38420;53.150;6.370;2023-05-16T11:27:31;13.40;99.90
52509;DHT22;38420;53.150;6.370;2023-05-16T11:32:36;13.10;99.90
52509;DHT22;38420;53.150;6.370;2023-05-16T11:35:03;13.20;99.90
52509;DHT22;38420;53.150;6.370;2023-05-16T11:37:29;13.10;99.90
52509;DHT22;38420;53.150;6.370;2023-05-16T11:40:01;13.00;99.90
52509;DHT22;38420;53.150;6.370;2023-05-16T11:42:34;13.00;99.90
52509;DHT22;38420;53.150;6.370;2023-05-16T11:45:05;13.00;99.90
52509;DHT22;38420;53.150;6.370;2023-05-16T11:47:31;13.20;99.90
52509;DHT22;38420;53.150;6.370;2023-05-16T11:49:57;13.10;99.90
52509;DHT22;38420;53.150;6.370;2023-05-16T11:52:22;13.30;99.90
52509;DHT22;38420;53.150;6.370;2023-05-16T11:54:48;13.30;99.90
52509;DHT22;38420;53.150;6.370;2023-05-16T11:57:15;13.50;99.90
52509;DHT22;38420;53.150;6.370;2023-05-16T11:59:41;13.50;99.90
52509;DHT22;38420;53.150;6.370;2023-05-16T12:02:07;13.30;99.90
52509;DHT22;38420;53.150;6.370;2023-05-16T12:04:34;13.10;99.90
52509;DHT22;38420;53.150;6.370;2023-05-16T12:07:02;13.10;99.90
52509;DHT22;38420;53.150;6.370;2023-05-16T12:09:29;13.20;99.90
52509;DHT22;38420;53.150;6.370;2023-05-16T12:11:55;13.20;99.90
52509;DHT22;38420;53.150;6.370;2023-05-16T12:14:21;13.20;99.90
52509;DHT22;38420;53.150;6.370;2023-05-16T12:16:47;13.60;99.90
52509;DHT22;38420;53.150;6.370;2023-05-16T12:19:14;13.50;99.90
52509;DHT22;38420;53.150;6.370;2023-05-16T12:21:39;13.50;99.90
52509;DHT22;38420;53.150;6.370;2023-05-16T12:24:09;13.50;99.90
52509;DHT22;38420;53.150;6.370;2023-05-16T12:26:39;13.50;99.90
52509;DHT22;38420;53.150;6.370;2023-05-16T12:29:05;13.70;99.90
52509;DHT22;38420;53.150;6.370;2023-05-16T12:31:35;13.60;99.90
52509;DHT22;38420;53.150;6.370;2023-05-16T12:34:01;13.40;99.90
52509;DHT22;38420;53.150;6.370;2023-05-16T12:36:31;13.50;99.90
52509;DHT22;38420;53.150;6.370;2023-05-16T12:39:00;13.20;99.90
52509;DHT22;38420;53.150;6.370;2023-05-16T12:41:26;13.10;99.90
52509;DHT22;38420;53.150;6.370;2023-05-16T12:44:05;13.00;99.90
52509;DHT22;38420;53.150;6.370;2023-05-16T12:46:31;13.00;99.90
52509;DHT22;38420;53.150;6.370;2023-05-16T12:49:03;13.40;99.90
52509;DHT22;38420;53.150;6.370;2023-05-16T12:51:31;13.30;99.90
52509;DHT22;38420;53.150;6.370;2023-05-16T12:54:07;13.10;99.90
52509;DHT22;38420;53.150;6.370;2023-05-16T12:56:33;12.90;99.90
52509;DHT22;38420;53.150;6.370;2023-05-16T12:58:59;13.70;99.90
52509;DHT22;38420;53.150;6.370;2023-05-16T13:01:25;12.90;99.90
52509;DHT22;38420;53.150;6.370;2023-05-16T13:03:50;12.90;99.90
52509;DHT22;38420;53.150;6.370;2023-05-16T13:06:16;13.00;99.90
52509;DHT22;38420;53.150;6.370;2023-05-16T13:08:41;13.10;99.90
52509;DHT22;38420;53.150;6.370;2023-05-16T13:11:07;13.00;99.90
52509;DHT22;38420;53.150;6.370;2023-05-16T13:13:32;12.90;99.90
52509;DHT22;38420;53.150;6.370;2023-05-16T13:15:58;13.00;99.90
52509;DHT22;38420;53.150;6.370;2023-05-16T13:18:24;13.20;99.90
52509;DHT22;38420;53.150;6.370;2023-05-16T13:20:49;13.20;99.90
52509;DHT22;38420;53.150;6.370;2023-05-16T13:23:15;13.20;99.90
52509;DHT22;38420;53.150;6.370;2023-05-16T13:25:41;13.10;99.90
52509;DHT22;38420;53.150;6.370;2023-05-16T13:28:06;13.10;99.90
52509;DHT22;38420;53.150;6.370;2023-05-16T13:30:32;13.10;99.90
52509;DHT22;38420;53.150;6.370;2023-05-16T13:32:58;13.00;99.90
52509;DHT22;38420;53.150;6.370;2023-05-16T13:35:23;12.90;99.90
52509;DHT22;38420;53.150;6.370;2023-05-16T13:37:49;12.90;99.90
52509;DHT22;38420;53.150;6.370;2023-05-16T13:40:14;12.80;99.90
52509;DHT22;38420;53.150;6.370;2023-05-16T13:42:40;12.80;99.90
52509;DHT22;38420;53.150;6.370;2023-05-16T13:45:06;12.60;99.90
52509;DHT22;38420;53.150;6.370;2023-05-16T13:47:32;12.10;99.90
52509;DHT22;38420;53.150;6.370;2023-05-16T13:49:58;11.90;99.90
52509;DHT22;38420;53.150;6.370;2023-05-16T13:52:30;11.40;99.90
52509;DHT22;38420;53.150;6.370;2023-05-16T13:54:56;10.90;99.90
52509;DHT22;38420;53.150;6.370;2023-05-16T13:57:22;11.00;99.90
52509;DHT22;38420;53.150;6.370;2023-05-16T13:59:47;10.90;99.90
52509;DHT22;38420;53.150;6.370;2023-05-16T14:02:13;11.30;99.90
52509;DHT22;38420;53.150;6.370;2023-05-16T14:04:39;11.20;99.90
52509;DHT22;38420;53.150;6.370;2023-05-16T14:07:05;11.20;99.90
52509;DHT22;38420;53.150;6.370;2023-05-16T14:09:31;11.40;99.90
52509;DHT22;38420;53.150;6.370;2023-05-16T14:11:59;11.60;99.90
52509;DHT22;38420;53.150;6.370;2023-05-16T14:14:27;11.60;99.90
52509;DHT22;38420;53.150;6.370;2023-05-16T14:16:52;12.00;99.90
52509;DHT22;38420;53.150;6.370;2023-05-16T14:19:18;11.90;99.90
52509;DHT22;38420;53.150;6.370;2023-05-16T14:21:44;11.70;99.90
52509;DHT22;38420;53.150;6.370;2023-05-16T14:24:09;11.60;99.90
52509;DHT22;38420;53.150;6.370;2023-05-16T14:26:36;12.10;99.90
52509;DHT22;38420;53.150;6.370;2023-05-16T14:29:02;12.10;99.90
52509;DHT22;38420;53.150;6.370;2023-05-16T14:31:28;12.30;99.90
52509;DHT22;38420;53.150;6.370;2023-05-16T14:33:54;12.50;99.90
52509;DHT22;38420;53.150;6.370;2023-05-16T14:36:19;12.50;99.90
52509;DHT22;38420;53.150;6.370;2023-05-16T14:38:45;12.80;99.90
52509;DHT22;38420;53.150;6.370;2023-05-16T14:41:10;12.50;99.90
52509;DHT22;38420;53.150;6.370;2023-05-16T14:43:36;12.20;99.90
52509;DHT22;38420;53.150;6.370;2023-05-16T14:46:02;12.30;99.90
52509;DHT22;38420;53.150;6.370;2023-05-16T14:48:28;12.30;99.90
52509;DHT22;38420;53.150;6.370;2023-05-16T14:50:54;12.10;99.90
52509;DHT22;38420;53.150;6.370;2023-05-16T14:53:19;12.20;99.90
52509;DHT22;38420;53.150;6.370;2023-05-16T14:55:46;12.30;99.90
52509;DHT22;38420;53.150;6.370;2023-05-16T14:58:12;12.30;99.90
52509;DHT22;38420;53.150;6.370;2023-05-16T15:00:37;12.30;99.90
52509;DHT22;38420;53.150;6.370;2023-05-16T15:03:03;12.30;99.90
52509;DHT22;38420;53.150;6.370;2023-05-16T15:05:28;12.30;99.90
52509;DHT22;38420;53.150;6.370;2023-05-16T15:07:54;12.30;99.90
52509;DHT22;38420;53.150;6.370;2023-05-16T15:10:20;12.30;99.90
52509;DHT22;38420;53.150;6.370;2023-05-16T15:12:45;12.40;99.90
52509;DHT22;38420;53.150;6.370;2023-05-16T15:15:11;12.50;99.90
52509;DHT22;38420;53.150;6.370;2023-05-16T15:17:37;12.40;99.90
52509;DHT22;38420;53.150;6.370;2023-05-16T15:20:06;12.40;99.90
52509;DHT22;38420;53.150;6.370;2023-05-16T15:22:31;12.50;99.90
52509;DHT22;38420;53.150;6.370;2023-05-16T15:24:57;12.50;99.90
52509;DHT22;38420;53.150;6.370;2023-05-16T15:27:23;12.40;99.90
52509;DHT22;38420;53.150;6.370;2023-05-16T15:29:48;12.50;99.90
52509;DHT22;38420;53.150;6.370;2023-05-16T15:32:14;12.50;99.90
52509;DHT22;38420;53.150;6.370;2023-05-16T15:34:41;12.60;99.90
52509;DHT22;38420;53.150;6.370;2023-05-16T15:37:06;12.40;99.90
52509;DHT22;38420;53.150;6.370;2023-05-16T15:39:32;12.20;99.90
52509;DHT22;38420;53.150;6.370;2023-05-16T15:41:58;12.00;99.90
52509;DHT22;38420;53.150;6.370;2023-05-16T15:44:23;11.50;99.90
52509;DHT22;38420;53.150;6.370;2023-05-16T15:46:49;11.40;99.90
52509;DHT22;38420;53.150;6.370;2023-05-16T15:49:15;11.20;99.90
52509;DHT22;38420;53.150;6.370;2023-05-16T15:51:41;11.10;99.90
52509;DHT22;38420;53.150;6.370;2023-05-16T15:54:06;11.20;99.90
52509;DHT22;38420;53.150;6.370;2023-05-16T15:56:32;11.10;99.90
52509;DHT22;38420;53.150;6.370;2023-05-16T15:58:58;11.00;99.90
52509;DHT22;38420;53.150;6.370;2023-05-16T16:01:23;11.20;99.90
52509;DHT22;38420;53.150;6.370;2023-05-16T16:03:49;11.30;99.90
52509;DHT22;38420;53.150;6.370;2023-05-16T16:06:15;11.30;99.90
52509;DHT22;38420;53.150;6.370;2023-05-16T16:08:41;11.50;99.90